Time;durP1;ratioP1;P1;durP2;ratioP2;P2;SDS_P1;SDS_P2;PMS_P1;PMS_P2;Temp;Humidity;BMP_temperature;BMP_pressure;BME280_temperature;BME280_humidity;BME280_pressure;Samples;Min_cycle;Max_cycle;Signal;HPM_P1;HPM_P2
2023/12/24 00:00:07;;;;;;;0.30;0.30;;;;;;;15.04;72.11;100630.03;5067416;28;20523;-75
2023/12/24 00:02:32;;;;;;;0.30;0.30;;;;;;;14.85;72.84;100626.94;5066216;28;20036;-74
2023/12/24 00:04:57;;;;;;;0.32;0.32;;;;;;;15.10;72.56;100613.59;5063452;28;20058;-74
2023/12/24 00:07:23;;;;;;;0.20;0.20;;;;;;;15.81;70.69;100606.69;5065928;28;20083;-75
2023/12/24 00:09:48;;;;;;;0.30;0.30;;;;;;;15.70;70.01;100591.50;5064061;28;20064;-74
2023/12/24 00:12:13;;;;;;;0.30;0.30;;;;;;;15.19;71.51;100592.28;5063489;28;20046;-73
2023/12/24 00:14:39;;;;;;;0.40;0.40;;;;;;;15.45;70.94;100594.09;5060025;28;20029;-75
2023/12/24 00:17:04;;;;;;;0.30;0.30;;;;;;;15.43;72.15;100598.97;5062383;28;20036;-75
2023/12/24 00:19:30;;;;;;;0.22;0.22;;;;;;;14.80;73.69;100599.84;5067384;28;20040;-75
2023/12/24 00:21:55;;;;;;;0.20;0.20;;;;;;;15.40;72.56;100592.13;5063710;28;20033;-74
2023/12/24 00:24:20;;;;;;;0.30;0.30;;;;;;;15.51;71.66;100593.00;5066399;28;20048;-75
2023/12/24 00:26:46;;;;;;;0.38;0.38;;;;;;;15.45;70.35;100607.63;5067030;28;20037;-75
2023/12/24 00:29:11;;;;;;;0.30;0.30;;;;;;;15.16;71.88;100590.06;5062225;28;20553;-75
2023/12/24 00:31:37;;;;;;;0.30;0.30;;;;;;;14.98;72.57;100599.44;5066007;28;20435;-74
2023/12/24 00:34:02;;;;;;;0.30;0.30;;;;;;;15.84;70.46;100588.00;5063260;28;20044;-75
2023/12/24 00:36:28;;;;;;;0.20;0.20;;;;;;;15.46;70.40;100609.25;5057209;28;20593;-75
2023/12/24 00:38:53;;;;;;;0.40;0.40;;;;;;;15.50;71.05;100585.97;5068763;28;20586;-75
2023/12/24 00:41:18;;;;;;;0.30;0.30;;;;;;;15.49;69.99;100574.31;5071212;28;20464;-74
2023/12/24 00:43:45;;;;;;;0.30;0.30;;;;;;;15.30;71.18;100585.84;5073557;28;20480;-74
2023/12/24 00:46:14;;;;;;;0.30;0.30;;;;;;;15.28;71.55;100569.84;5072928;28;20040;-75
2023/12/24 00:48:40;;;;;;;0.22;0.22;;;;;;;15.59;70.29;100574.38;5056312;28;20032;-75
2023/12/24 00:51:05;;;;;;;0.40;0.40;;;;;;;15.55;70.54;100561.63;5072980;28;20114;-76
2023/12/24 00:53:31;;;;;;;0.30;0.30;;;;;;;15.04;71.80;100563.22;5073415;28;20381;-74
2023/12/24 00:55:57;;;;;;;0.20;0.20;;;;;;;15.46;70.04;100555.91;5072952;28;20020;-73
2023/12/24 00:58:23;;;;;;;0.30;0.30;;;;;;;15.38;70.40;100572.63;5072113;28;20102;-75
2023/12/24 01:00:48;;;;;;;0.30;0.30;;;;;;;15.81;69.13;100547.91;5072053;28;20045;-74
2023/12/24 01:03:14;;;;;;;0.30;0.30;;;;;;;15.96;68.70;100533.56;5072669;28;20064;-74
2023/12/24 01:05:40;;;;;;;0.30;0.30;;;;;;;16.64;66.32;100524.19;5070232;28;20051;-75
2023/12/24 01:08:06;;;;;;;0.30;0.30;;;;;;;15.72;68.27;100549.50;5068713;28;20045;-75
2023/12/24 01:10:31;;;;;;;0.20;0.20;;;;;;;15.80;68.47;100542.78;5072347;28;20045;-75
2023/12/24 01:12:57;;;;;;;0.20;0.20;;;;;;;15.98;67.06;100541.47;5072752;28;20044;-75
2023/12/24 01:15:22;;;;;;;0.30;0.30;;;;;;;16.07;67.94;100529.00;5072481;28;20062;-76
2023/12/24 01:17:47;;;;;;;0.30;0.30;;;;;;;15.39;70.65;100532.84;5070884;28;20117;-74
2023/12/24 01:20:16;;;;;;;0.28;0.28;;;;;;;16.24;68.20;100538.50;5073167;28;20509;-74
2023/12/24 01:22:42;;;;;;;0.10;0.10;;;;;;;16.07;66.30;100543.38;5055541;28;20052;-75
2023/12/24 01:25:09;;;;;;;0.20;0.20;;;;;;;16.03;67.40;100545.00;5072823;28;20660;-74
2023/12/24 01:27:35;;;;;;;0.20;0.20;;;;;;;15.17;70.44;100534.88;5072589;28;20523;-75
2023/12/24 01:30:01;;;;;;;0.30;0.30;;;;;;;16.04;68.00;100527.63;5072822;28;20077;-74
2023/12/24 01:32:26;;;;;;;0.30;0.30;;;;;;;15.49;71.09;100516.63;5072433;28;20080;-75
2023/12/24 01:34:52;;;;;;;0.38;0.38;;;;;;;15.23;73.60;100547.38;5073053;28;20060;-75
2023/12/24 01:37:17;;;;;;;0.20;0.20;;;;;;;15.29;73.74;100551.72;5072575;28;20036;-74
2023/12/24 01:39:42;;;;;;;0.30;0.30;;;;;;;15.67;72.58;100519.69;5068787;28;20094;-74
2023/12/24 01:42:08;;;;;;;0.20;0.20;;;;;;;14.71;76.65;100540.00;5052176;28;20526;-74
2023/12/24 01:44:33;;;;;;;0.20;0.20;;;;;;;15.11;75.76;100523.22;5051411;28;20036;-75
2023/12/24 01:46:59;;;;;;;0.20;0.20;;;;;;;14.87;77.04;100522.81;5052957;28;20029;-74
2023/12/24 01:49:25;;;;;;;0.20;0.20;;;;;;;15.37;75.65;100526.88;5052246;28;20040;-75
2023/12/24 01:51:51;;;;;;;0.10;0.10;;;;;;;14.70;78.42;100545.69;5052184;28;20091;-74
2023/12/24 01:54:17;;;;;;;0.20;0.20;;;;;;;14.84;77.31;100525.19;5052275;28;20037;-74
2023/12/24 01:56:42;;;;;;;0.30;0.30;;;;;;;14.94;75.30;100512.56;5052097;28;20036;-72
2023/12/24 01:59:09;;;;;;;0.40;0.40;;;;;;;15.34;75.59;100521.97;5062083;28;20028;-75
2023/12/24 02:01:36;;;;;;;0.30;0.30;;;;;;;15.93;73.72;100519.75;5071589;28;20551;-76
2023/12/24 02:04:02;;;;;;;0.30;0.30;;;;;;;15.73;74.23;100513.22;5071947;28;20492;-74
2023/12/24 02:06:28;;;;;;;0.50;0.50;;;;;;;15.39;75.68;100532.84;5071832;28;20511;-75
2023/12/24 02:08:55;;;;;;;0.30;0.30;;;;;;;15.10;75.89;100524.28;5071914;28;20131;-73
2023/12/24 02:11:21;;;;;;;0.30;0.30;;;;;;;15.59;74.68;100501.25;5071632;28;20060;-74
2023/12/24 02:13:46;;;;;;;0.15;0.15;;;;;;;15.27;76.26;100503.25;5072362;28;20492;-75
2023/12/24 02:16:17;;;;;;;0.40;0.40;;;;;;;15.38;75.59;100504.09;5071378;28;20040;-74
2023/12/24 02:18:43;;;;;;;;;;;;;;;15.32;75.53;100503.28;5071509;28;20055;-74
2023/12/24 02:21:08;;;;;;;0.30;0.30;;;;;;;15.68;73.66;100493.41;5070917;28;19916;-75
2023/12/24 02:23:34;;;;;;;0.30;0.30;;;;;;;15.18;75.07;100494.00;5071044;28;20158;-74
2023/12/24 02:26:15;;;;;;;0.20;0.20;;;;;;;15.01;76.50;100493.38;5071438;28;20057;-74
2023/12/24 02:28:44;;;;;;;0.30;0.30;;;;;;;15.44;74.27;100484.13;5071259;28;20044;-74
2023/12/24 02:31:11;;;;;;;0.20;0.20;;;;;;;15.58;74.16;100496.09;5071343;28;20033;-74
2023/12/24 02:33:41;;;;;;;0.30;0.30;;;;;;;15.46;74.62;100496.34;5069534;28;20041;-74
2023/12/24 02:36:10;;;;;;;0.38;0.38;;;;;;;15.17;75.44;100478.03;5071515;28;20425;-74
2023/12/24 02:38:36;;;;;;;0.20;0.20;;;;;;;15.47;75.94;100465.44;5071063;28;20163;-74
2023/12/24 02:41:01;;;;;;;0.20;0.20;;;;;;;15.24;75.73;100481.31;5061585;28;20119;-73
2023/12/24 02:43:27;;;;;;;0.30;0.30;;;;;;;15.66;73.69;100471.19;5070245;28;20187;-73
2023/12/24 02:45:54;;;;;;;0.17;0.17;;;;;;;15.29;76.00;100462.41;5070609;28;20052;-74
2023/12/24 02:48:20;;;;;;;0.20;0.20;;;;;;;15.07;76.91;100448.22;5070505;28;20072;-74
2023/12/24 02:50:45;;;;;;;0.30;0.30;;;;;;;15.07;78.18;100459.03;5071146;28;20139;-75
2023/12/24 02:53:10;;;;;;;0.20;0.20;;;;;;;14.83;79.43;100455.94;5071620;28;20108;-74
2023/12/24 02:55:36;;;;;;;0.30;0.30;;;;;;;15.20;77.49;100470.19;5071103;28;20128;-74
2023/12/24 02:58:01;;;;;;;0.32;0.32;;;;;;;15.31;78.14;100462.94;5070552;28;20271;-75
2023/12/24 03:00:26;;;;;;;0.32;0.32;;;;;;;15.48;76.34;100466.28;5068921;28;20503;-75
2023/12/24 03:02:52;;;;;;;0.40;0.40;;;;;;;15.19;77.57;100448.81;5051079;28;20041;-75
2023/12/24 03:05:17;;;;;;;0.22;0.22;;;;;;;15.57;76.20;100454.66;5051007;28;20056;-75
2023/12/24 03:07:43;;;;;;;0.28;0.28;;;;;;;15.21;76.89;100450.19;5050878;28;20131;-74
2023/12/24 03:10:08;;;;;;;0.20;0.20;;;;;;;15.44;77.94;100443.50;5050601;28;20116;-74
2023/12/24 03:12:33;;;;;;;0.30;0.30;;;;;;;15.49;76.09;100433.50;5050520;28;20061;-75
2023/12/24 03:14:59;;;;;;;0.30;0.30;;;;;;;15.76;75.32;100453.06;5050494;28;20065;-75
2023/12/24 03:17:25;;;;;;;0.40;0.40;;;;;;;15.56;76.20;100455.75;5050445;28;20110;-76
2023/12/24 03:19:50;;;;;;;0.30;0.30;;;;;;;15.83;76.04;100436.53;5051293;28;20033;-75
2023/12/24 03:22:15;;;;;;;0.20;0.20;;;;;;;15.53;77.46;100445.44;5058177;28;20051;-72
2023/12/24 03:24:41;;;;;;;0.30;0.30;;;;;;;15.33;78.78;100434.50;5064771;28;20140;-75
2023/12/24 03:27:06;;;;;;;0.20;0.20;;;;;;;14.93;79.39;100413.53;5050424;28;20115;-74
2023/12/24 03:29:32;;;;;;;0.20;0.20;;;;;;;14.98;80.45;100423.53;5049722;28;20112;-74
2023/12/24 03:31:57;;;;;;;0.30;0.30;;;;;;;15.71;77.65;100417.03;5050709;28;20092;-75
2023/12/24 03:34:22;;;;;;;0.30;0.30;;;;;;;15.60;77.25;100402.66;5050680;28;20515;-75
2023/12/24 03:36:48;;;;;;;0.25;0.25;;;;;;;15.91;76.71;100405.38;5041014;28;20120;-74
2023/12/24 03:39:14;;;;;;;0.38;0.38;;;;;;;15.44;78.61;100409.13;5049888;28;20065;-74
2023/12/24 03:41:40;;;;;;;0.28;0.28;;;;;;;15.37;78.15;100410.44;5050291;28;20045;-74
2023/12/24 03:44:06;;;;;;;0.22;0.22;;;;;;;15.44;77.60;100408.31;5050678;28;20041;-75
2023/12/24 03:46:32;;;;;;;0.20;0.20;;;;;;;15.45;79.05;100399.91;5050171;28;20051;-76
2023/12/24 03:48:58;;;;;;;0.30;0.30;;;;;;;15.48;78.40;100385.84;5059691;28;20484;-74
2023/12/24 03:51:23;;;;;;;0.40;0.40;;;;;;;15.40;78.85;100402.59;5051648;28;20074;-76
2023/12/24 03:53:49;;;;;;;0.15;0.15;;;;;;;15.54;78.53;100402.91;5070291;28;20778;-76
2023/12/24 03:56:14;;;;;;;0.20;0.20;;;;;;;15.66;77.28;100392.66;5070889;28;20036;-75
2023/12/24 03:58:39;;;;;;;0.20;0.20;;;;;;;15.32;78.86;100384.16;5064220;28;20033;-74
2023/12/24 04:01:08;;;;;;;0.20;0.20;;;;;;;15.99;76.92;100394.00;5049908;28;20053;-75
2023/12/24 04:03:34;;;;;;;0.20;0.20;;;;;;;15.80;78.25;100383.69;5050139;28;20037;-75
2023/12/24 04:06:01;;;;;;;0.15;0.15;;;;;;;15.39;77.99;100381.19;5041871;28;20038;-74
2023/12/24 04:08:26;;;;;;;0.35;0.35;;;;;;;15.62;78.11;100414.03;5050228;28;20090;-75
2023/12/24 04:10:52;;;;;;;0.20;0.20;;;;;;;15.73;77.58;100366.09;5050677;28;20078;-75
2023/12/24 04:13:17;;;;;;;0.30;0.30;;;;;;;15.51;79.08;100401.56;5049961;28;20401;-76
2023/12/24 04:15:42;;;;;;;0.25;0.25;;;;;;;15.82;78.85;100365.28;5049099;28;20497;-74
2023/12/24 04:18:08;;;;;;;0.20;0.20;;;;;;;16.05;77.07;100363.09;5050556;28;20072;-74
2023/12/24 04:20:33;;;;;;;0.30;0.30;;;;;;;15.70;78.73;100356.59;5031649;28;20443;-75
2023/12/24 04:22:58;;;;;;;0.30;0.30;;;;;;;16.26;75.14;100368.22;5050440;28;20112;-74
2023/12/24 04:25:24;;;;;;;0.35;0.35;;;;;;;15.55;79.91;100369.31;5060990;28;20059;-75
2023/12/24 04:27:49;;;;;;;0.30;0.30;;;;;;;15.77;79.52;100361.75;5070132;28;20037;-74
2023/12/24 04:30:15;;;;;;;0.40;0.40;;;;;;;15.88;78.10;100362.59;5069505;28;20036;-74
2023/12/24 04:32:40;;;;;;;0.30;0.30;;;;;;;15.88;77.43;100363.38;5069112;28;20032;-75
2023/12/24 04:35:06;;;;;;;0.20;0.20;;;;;;;15.12;81.53;100373.28;5069781;28;20128;-76
2023/12/24 04:37:31;;;;;;;0.40;0.40;;;;;;;15.11;82.15;100371.66;5069734;28;20051;-76
2023/12/24 04:39:57;;;;;;;0.20;0.20;;;;;;;15.34;80.45;100397.41;5051612;28;20033;-74
2023/12/24 04:42:23;;;;;;;0.20;0.20;;;;;;;15.52;80.80;100350.91;5074232;28;20040;-76
2023/12/24 04:44:48;;;;;;;0.30;0.30;;;;;;;15.86;77.66;100343.06;5071164;28;20047;-75
2023/12/24 04:47:13;;;;;;;0.40;0.40;;;;;;;16.36;76.46;100341.09;5074030;28;20103;-74
2023/12/24 04:49:39;;;;;;;0.30;0.30;;;;;;;15.50;80.11;100343.06;5055139;28;20453;-74
2023/12/24 04:52:04;;;;;;;0.30;0.30;;;;;;;15.48;81.84;100330.88;5055714;28;20064;-75
2023/12/24 04:54:30;;;;;;;0.20;0.20;;;;;;;15.48;81.39;100320.84;5073625;28;20374;-74
2023/12/24 04:56:55;;;;;;;0.30;0.30;;;;;;;15.33;81.32;100337.03;5073567;28;20036;-75
2023/12/24 04:59:21;;;;;;;0.30;0.30;;;;;;;15.09;82.65;100348.63;5073348;28;20036;-74
2023/12/24 05:01:48;;;;;;;0.30;0.30;;;;;;;16.60;77.24;100330.47;5060035;28;20029;-75
2023/12/24 05:04:14;;;;;;;0.28;0.28;;;;;;;15.72;79.52;100330.06;5055126;28;20508;-76
2023/12/24 05:06:40;;;;;;;0.28;0.28;;;;;;;15.95;79.60;100326.00;5073505;28;20040;-75
2023/12/24 05:09:05;;;;;;;0.20;0.20;;;;;;;15.50;81.58;100321.41;5072383;28;20446;-74
2023/12/24 05:11:30;;;;;;;0.30;0.30;;;;;;;16.10;79.31;100319.72;5072954;28;20059;-74
2023/12/24 05:13:56;;;;;;;0.30;0.30;;;;;;;15.62;81.19;100326.56;5072715;28;20020;-74
2023/12/24 05:16:21;;;;;;;0.40;0.40;;;;;;;15.57;80.96;100318.41;5072358;28;20032;-75
2023/12/24 05:18:47;;;;;;;0.30;0.30;;;;;;;15.51;80.90;100308.66;5072435;28;20036;-75
2023/12/24 05:21:12;;;;;;;0.20;0.20;;;;;;;15.15;83.72;100309.69;5072035;28;20132;-75
2023/12/24 05:23:37;;;;;;;0.22;0.22;;;;;;;15.89;80.83;100323.53;5072845;28;20037;-75
2023/12/24 05:26:03;;;;;;;0.20;0.20;;;;;;;16.86;75.16;100325.75;5072680;28;20496;-75
2023/12/24 05:28:28;;;;;;;0.20;0.20;;;;;;;16.10;78.42;100320.53;5054684;28;20037;-74
2023/12/24 05:30:53;;;;;;;0.15;0.15;;;;;;;16.46;76.23;100310.41;5072057;28;20068;-74
2023/12/24 05:33:19;;;;;;;0.30;0.30;;;;;;;16.11;77.98;100315.94;5071629;28;20135;-74
2023/12/24 05:35:45;;;;;;;0.30;0.30;;;;;;;15.90;79.76;100308.94;5071648;28;20392;-74
2023/12/24 05:38:10;;;;;;;0.20;0.20;;;;;;;16.47;76.40;100312.06;5072510;28;20036;-73
2023/12/24 05:40:35;;;;;;;0.20;0.20;;;;;;;16.05;79.97;100296.16;5071434;28;20041;-75
2023/12/24 05:43:01;;;;;;;0.20;0.20;;;;;;;15.83;80.26;100306.50;5071770;28;20040;-74
2023/12/24 05:45:26;;;;;;;0.20;0.20;;;;;;;16.41;79.42;100313.16;5071477;28;20067;-74
2023/12/24 05:47:52;;;;;;;0.30;0.30;;;;;;;16.13;79.01;100300.22;5070788;28;20068;-74
2023/12/24 05:50:17;;;;;;;0.30;0.30;;;;;;;16.43;76.82;100300.94;5071212;28;20039;-72
2023/12/24 05:52:42;;;;;;;0.38;0.38;;;;;;;15.64;81.82;100298.13;5071060;28;20074;-74
2023/12/24 05:55:09;;;;;;;0.10;0.10;;;;;;;16.49;77.27;100283.56;5071556;28;20039;-75
2023/12/24 05:57:35;;;;;;;0.17;0.17;;;;;;;15.96;81.07;100291.59;5088381;28;20089;-74
2023/12/24 06:00:00;;;;;;;0.40;0.40;;;;;;;15.75;82.71;100288.88;5074088;28;20040;-73
2023/12/24 06:02:26;;;;;;;0.30;0.30;;;;;;;16.35;79.86;100296.06;5071134;28;20032;-73
2023/12/24 06:04:51;;;;;;;0.30;0.30;;;;;;;16.74;76.41;100304.38;5071536;28;20028;-74
2023/12/24 06:07:17;;;;;;;0.30;0.30;;;;;;;16.53;77.85;100300.09;5067297;28;20102;-75
2023/12/24 06:09:42;;;;;;;0.22;0.22;;;;;;;16.43;77.29;100284.66;5071554;28;20123;-74
2023/12/24 06:12:08;;;;;;;0.17;0.17;;;;;;;16.16;79.46;100295.03;5071299;28;20033;-74
2023/12/24 06:14:33;;;;;;;0.30;0.30;;;;;;;16.28;79.17;100295.56;5071509;28;20028;-73
2023/12/24 06:16:59;;;;;;;0.20;0.20;;;;;;;16.92;75.98;100305.66;5071318;28;20024;-74
2023/12/24 06:19:24;;;;;;;0.30;0.30;;;;;;;16.34;77.50;100328.91;5071229;28;20044;-74
2023/12/24 06:21:50;;;;;;;0.30;0.30;;;;;;;16.61;77.50;100297.63;5070982;28;20143;-75
2023/12/24 06:24:20;;;;;;;0.10;0.10;;;;;;;16.93;77.14;100293.69;5070721;28;20036;-74
2023/12/24 06:26:49;;;;;;;0.25;0.25;;;;;;;16.24;79.64;100296.38;5053088;28;20036;-74
2023/12/24 06:29:14;;;;;;;0.20;0.20;;;;;;;16.40;78.60;100306.09;5071879;28;20024;-74
2023/12/24 06:31:39;;;;;;;0.50;0.50;;;;;;;16.51;77.63;100297.69;5070268;28;20024;-73
2023/12/24 06:34:05;;;;;;;0.25;0.25;;;;;;;16.92;77.79;100294.78;5052275;28;20032;-74
2023/12/24 06:36:30;;;;;;;0.25;0.25;;;;;;;16.43;77.97;100303.63;5070774;28;20033;-72
2023/12/24 06:38:55;;;;;;;0.28;0.28;;;;;;;16.43;79.28;100281.16;5070559;28;20116;-73
2023/12/24 06:41:22;;;;;;;0.43;0.43;;;;;;;16.83;77.74;100291.00;5052767;28;20029;-73
2023/12/24 06:43:47;;;;;;;0.30;0.30;;;;;;;16.33;78.08;100279.25;5070452;28;20131;-74
2023/12/24 06:46:12;;;;;;;0.40;0.40;;;;;;;15.98;81.49;100279.34;5070457;28;20624;-72
2023/12/24 06:48:41;;;;;;;0.20;0.20;;;;;;;16.04;82.18;100285.59;5070679;28;20438;-74
2023/12/24 06:51:07;;;;;;;0.40;0.40;;;;;;;16.54;79.48;100291.72;5070379;28;20075;-75
2023/12/24 06:53:32;;;;;;;0.10;0.10;;;;;;;16.58;78.64;100284.66;5070154;28;20059;-73
2023/12/24 06:55:57;;;;;;;0.20;0.20;;;;;;;15.87;81.59;100290.50;5070588;28;20569;-72
2023/12/24 06:58:23;;;;;;;0.28;0.28;;;;;;;16.76;78.97;100282.38;5069357;28;20036;-74
2023/12/24 07:00:48;;;;;;;0.22;0.22;;;;;;;15.89;82.99;100288.31;5051631;28;20169;-74
2023/12/24 07:03:14;;;;;;;0.20;0.20;;;;;;;16.08;82.74;100292.91;5045242;28;20056;-74
2023/12/24 07:05:40;;;;;;;0.20;0.20;;;;;;;16.07;81.58;100279.63;5049864;28;20048;-74
2023/12/24 07:08:07;;;;;;;0.30;0.30;;;;;;;16.08;82.65;100281.25;5050430;28;20032;-73
2023/12/24 07:10:33;;;;;;;0.20;0.20;;;;;;;15.67;84.60;100294.84;5050510;28;20033;-74
2023/12/24 07:12:58;;;;;;;0.20;0.20;;;;;;;15.99;83.25;100286.41;5049558;28;20551;-74
2023/12/24 07:15:23;;;;;;;0.30;0.30;;;;;;;15.74;83.61;100272.91;5053957;28;20032;-73
2023/12/24 07:17:49;;;;;;;0.20;0.20;;;;;;;16.17;81.84;100268.75;5069702;28;20558;-73
2023/12/24 07:20:14;;;;;;;0.20;0.20;;;;;;;15.83;84.08;100291.06;5052513;28;20039;-75
2023/12/24 07:22:40;;;;;;;0.30;0.30;;;;;;;16.63;80.57;100289.22;5052194;28;20407;-75
2023/12/24 07:25:06;;;;;;;0.35;0.35;;;;;;;15.58;84.40;100279.41;5069981;28;20095;-75
2023/12/24 07:27:31;;;;;;;0.15;0.15;;;;;;;16.55;80.47;100271.63;5052090;28;20039;-74
2023/12/24 07:29:57;;;;;;;0.20;0.20;;;;;;;16.15;80.88;100282.59;5070145;28;20439;-75
2023/12/24 07:32:22;;;;;;;0.30;0.30;;;;;;;16.63;80.90;100287.31;5069618;28;20032;-74
2023/12/24 07:34:48;;;;;;;0.20;0.20;;;;;;;16.25;81.23;100288.00;5070065;28;20024;-74
2023/12/24 07:37:14;;;;;;;0.30;0.30;;;;;;;16.46;81.24;100281.41;5069781;28;20337;-73
2023/12/24 07:39:39;;;;;;;0.30;0.30;;;;;;;16.83;78.89;100272.84;5069416;28;20045;-74
2023/12/24 07:42:05;;;;;;;0.30;0.30;;;;;;;16.66;80.26;100270.50;5045138;28;20043;-74
2023/12/24 07:44:30;;;;;;;0.20;0.20;;;;;;;16.21;81.58;100265.22;5057500;28;20028;-74
2023/12/24 07:46:56;;;;;;;0.10;0.10;;;;;;;16.73;79.97;100253.09;5042241;28;20119;-74
2023/12/24 07:49:21;;;;;;;0.32;0.32;;;;;;;16.45;81.50;100266.19;5057815;28;20032;-74
2023/12/24 07:51:47;;;;;;;0.13;0.13;;;;;;;16.65;81.28;100260.72;5059693;28;20302;-75
2023/12/24 07:54:13;;;;;;;0.10;0.10;;;;;;;16.37;82.75;100284.97;5059139;28;20056;-73
2023/12/24 07:56:38;;;;;;;0.20;0.20;;;;;;;16.79;79.69;100269.06;5060427;28;20037;-73
2023/12/24 07:59:03;;;;;;;0.20;0.20;;;;;;;16.21;82.74;100269.84;5060171;28;20098;-75
2023/12/24 08:01:29;;;;;;;0.17;0.17;;;;;;;17.36;76.63;100257.53;5058132;28;20029;-73
2023/12/24 08:03:54;;;;;;;0.20;0.20;;;;;;;16.52;81.55;100265.94;5058487;28;20506;-74
2023/12/24 08:06:21;;;;;;;0.28;0.28;;;;;;;16.22;82.86;100266.00;5068428;28;20523;-75
2023/12/24 08:08:46;;;;;;;0.20;0.20;;;;;;;16.21;83.21;100267.94;5069091;28;20025;-74
2023/12/24 08:11:12;;;;;;;0.30;0.30;;;;;;;16.77;80.31;100265.81;5069790;28;20051;-74
2023/12/24 08:13:37;;;;;;;0.30;0.30;;;;;;;16.69;80.81;100256.38;5068677;28;20036;-75
2023/12/24 08:16:03;;;;;;;0.30;0.30;;;;;;;16.35;82.78;100279.78;5070968;28;20036;-76
2023/12/24 08:18:28;;;;;;;0.30;0.30;;;;;;;16.53;80.75;100235.81;5054838;28;20043;-75
2023/12/24 08:20:54;;;;;;;0.25;0.25;;;;;;;16.68;81.78;100243.09;5072720;28;20056;-74
2023/12/24 08:23:20;;;;;;;0.20;0.20;;;;;;;16.63;81.72;100240.38;5073293;28;20020;-73
2023/12/24 08:25:45;;;;;;;0.30;0.30;;;;;;;16.72;81.18;100246.88;5073354;28;20113;-74
2023/12/24 08:28:10;;;;;;;0.20;0.20;;;;;;;16.30;82.63;100254.59;5074019;28;20110;-74
2023/12/24 08:30:36;;;;;;;0.25;0.25;;;;;;;16.56;81.96;100286.81;5073262;28;20033;-75
2023/12/24 08:33:01;;;;;;;0.20;0.20;;;;;;;17.23;79.89;100263.63;5046409;28;20441;-75
2023/12/24 08:35:27;;;;;;;0.20;0.20;;;;;;;16.25;82.88;100260.88;5052740;28;20047;-76
2023/12/24 08:37:52;;;;;;;0.30;0.30;;;;;;;16.73;81.56;100272.09;5071650;28;20398;-75
2023/12/24 08:40:18;;;;;;;0.20;0.20;;;;;;;16.98;79.48;100264.59;5073471;28;20081;-75
2023/12/24 08:42:43;;;;;;;0.30;0.30;;;;;;;16.52;82.89;100263.22;5072816;28;20045;-76
2023/12/24 08:45:09;;;;;;;0.30;0.30;;;;;;;16.54;82.53;100251.03;5072994;28;20040;-76
2023/12/24 08:47:34;;;;;;;0.28;0.28;;;;;;;15.87;86.43;100245.25;5073662;28;20028;-76
2023/12/24 08:49:59;;;;;;;0.20;0.20;;;;;;;16.58;83.03;100245.84;5074252;28;20036;-76
2023/12/24 08:52:25;;;;;;;0.20;0.20;;;;;;;16.54;83.33;100239.34;5072922;28;20381;-76
2023/12/24 08:54:50;;;;;;;0.30;0.30;;;;;;;16.83;83.13;100232.13;5072851;28;20037;-77
2023/12/24 08:57:16;;;;;;;0.28;0.28;;;;;;;16.94;82.44;100224.75;5054039;28;20060;-74
2023/12/24 08:59:41;;;;;;;0.20;0.20;;;;;;;16.38;83.82;100248.63;5052630;28;20037;-76
2023/12/24 09:02:07;;;;;;;0.30;0.30;;;;;;;16.31;84.38;100257.03;5034697;28;20037;-77
2023/12/24 09:04:32;;;;;;;0.30;0.30;;;;;;;16.35;84.08;100255.38;5053089;28;20115;-76
2023/12/24 09:06:58;;;;;;;0.30;0.30;;;;;;;17.16;81.19;100236.78;5052483;28;20044;-76
2023/12/24 09:09:23;;;;;;;0.20;0.20;;;;;;;16.62;82.88;100231.44;5052333;28;20477;-77
2023/12/24 09:11:50;;;;;;;0.20;0.20;;;;;;;16.65;83.25;100233.59;5051719;28;20489;-74
2023/12/24 09:14:15;;;;;;;0.20;0.20;;;;;;;17.55;78.21;100229.44;5052183;28;20060;-75
2023/12/24 09:16:40;;;;;;;0.30;0.30;;;;;;;17.11;79.75;100222.44;5050922;28;20033;-75
2023/12/24 09:19:06;;;;;;;0.22;0.22;;;;;;;16.96;80.60;100242.34;5049433;28;20568;-75
2023/12/24 09:21:31;;;;;;;0.20;0.20;;;;;;;16.55;82.46;100238.25;5051899;28;20125;-77
2023/12/24 09:23:58;;;;;;;0.13;0.13;;;;;;;16.82;81.25;100230.53;5051847;28;20323;-77
2023/12/24 09:26:24;;;;;;;0.28;0.28;;;;;;;17.06;79.20;100227.94;5065835;28;20040;-76
2023/12/24 09:28:49;;;;;;;0.20;0.20;;;;;;;16.77;81.56;100221.59;5053789;28;20035;-75
2023/12/24 09:31:15;;;;;;;0.20;0.20;;;;;;;16.96;81.84;100244.28;5072193;28;20056;-77
2023/12/24 09:33:40;;;;;;;0.20;0.20;;;;;;;17.16;80.26;100244.94;5072022;28;20090;-76
2023/12/24 09:36:07;;;;;;;0.17;0.17;;;;;;;17.06;80.01;100227.94;5072407;28;20623;-76
2023/12/24 09:38:33;;;;;;;0.20;0.20;;;;;;;16.77;81.79;100232.44;5070714;28;20047;-76
2023/12/24 09:40:59;;;;;;;0.20;0.20;;;;;;;17.09;81.94;100220.03;5072114;28;20071;-76
2023/12/24 09:43:28;;;;;;;0.20;0.20;;;;;;;16.62;83.33;100223.31;5071567;28;20115;-76
2023/12/24 09:45:53;;;;;;;0.20;0.20;;;;;;;16.71;82.25;100239.78;5068863;28;20028;-75
2023/12/24 09:48:19;;;;;;;0.20;0.20;;;;;;;17.35;80.34;100234.22;5071242;28;20048;-76
2023/12/24 09:50:44;;;;;;;0.20;0.20;;;;;;;17.05;80.65;100227.09;5071681;28;20063;-76
2023/12/24 09:53:10;;;;;;;0.10;0.10;;;;;;;17.24;80.02;100224.50;5069733;28;20028;-76
2023/12/24 09:55:35;;;;;;;0.20;0.20;;;;;;;16.97;81.65;100256.75;5071399;28;20043;-75
2023/12/24 09:58:00;;;;;;;0.25;0.25;;;;;;;17.08;81.86;100250.16;5071560;28;20032;-76
2023/12/24 10:00:26;;;;;;;0.17;0.17;;;;;;;17.11;80.21;100252.31;5071812;28;20404;-76
2023/12/24 10:02:52;;;;;;;0.10;0.10;;;;;;;16.99;82.02;100276.28;5068902;28;20044;-75
2023/12/24 10:05:17;;;;;;;0.10;0.10;;;;;;;17.06;81.80;100260.50;5053732;28;20590;-76
2023/12/24 10:07:46;;;;;;;0.38;0.38;;;;;;;16.96;81.74;100274.13;5072327;28;20021;-76
2023/12/24 10:10:13;;;;;;;0.20;0.20;;;;;;;17.21;80.60;100261.22;5068720;28;20033;-76
2023/12/24 10:12:40;;;;;;;0.20;0.20;;;;;;;16.71;82.88;100258.78;5053364;28;20024;-76
2023/12/24 10:15:06;;;;;;;0.20;0.20;;;;;;;17.00;81.46;100257.00;5071592;28;20044;-75
2023/12/24 10:17:33;;;;;;;0.30;0.30;;;;;;;16.68;83.47;100265.59;5068890;28;20074;-76
2023/12/24 10:20:04;;;;;;;0.28;0.28;;;;;;;16.66;86.06;100269.69;5072022;28;20418;-77
2023/12/24 10:22:29;;;;;;;0.25;0.25;;;;;;;16.69;82.93;100261.78;5071783;28;20404;-75
2023/12/24 10:25:02;;;;;;;0.30;0.30;;;;;;;17.00;84.24;100270.56;5070797;28;20029;-77
2023/12/24 10:27:28;;;;;;;0.20;0.20;;;;;;;16.97;81.94;100257.56;5052905;28;20052;-76
2023/12/24 10:30:06;;;;;;;0.17;0.17;;;;;;;17.19;81.87;100238.94;5050687;28;20408;-76
2023/12/24 10:32:32;;;;;;;0.20;0.20;;;;;;;17.76;78.06;100246.38;5049627;28;20470;-77
2023/12/24 10:34:57;;;;;;;0.10;0.10;;;;;;;17.80;77.83;100249.31;5048847;28;20013;-77
2023/12/24 10:37:29;;;;;;;0.20;0.20;;;;;;;17.12;81.47;100264.81;5051623;28;20025;-74
2023/12/24 10:40:11;;;;;;;0.20;0.20;;;;;;;17.63;81.45;100265.25;5051455;28;20036;-75
2023/12/24 10:42:40;;;;;;;0.20;0.20;;;;;;;17.07;82.58;100262.94;5051700;28;20025;-76
2023/12/24 10:45:07;;;;;;;0.20;0.20;;;;;;;17.16;81.32;100265.88;5050803;28;20452;-76
2023/12/24 10:47:33;;;;;;;0.10;0.10;;;;;;;17.16;80.67;100258.50;5050062;28;20029;-76
2023/12/24 10:49:59;;;;;;;0.30;0.30;;;;;;;17.46;79.45;100265.63;5049921;28;20021;-76
2023/12/24 10:52:24;;;;;;;0.20;0.20;;;;;;;17.46;78.41;100242.00;5051280;28;20029;-76
2023/12/24 10:54:52;;;;;;;0.20;0.20;;;;;;;16.78;81.89;100225.94;5050949;28;20211;-76
2023/12/24 10:57:48;;;;;;;0.10;0.10;;;;;;;17.58;78.83;100228.06;5050984;28;20033;-78
2023/12/24 11:00:14;;;;;;;0.20;0.20;;;;;;;17.56;77.68;100200.34;5042648;28;20091;-76
2023/12/24 11:02:45;;;;;;;0.20;0.20;;;;;;;17.32;79.73;100199.47;5039369;28;20455;-78
2023/12/24 11:05:50;;;;;;;;;;;;;;;17.59;78.70;100191.66;5042281;28;20040;-76
2023/12/24 11:08:28;;;;;;;0.20;0.20;;;;;;;17.52;79.86;100175.69;4935740;29;20017;-77
2023/12/24 11:10:57;;;;;;;0.20;0.20;;;;;;;17.41;78.81;100176.81;4941946;29;20051;-75
2023/12/24 11:13:31;;;;;;;0.20;0.20;;;;;;;17.53;79.23;100179.22;4946922;29;20150;-77
2023/12/24 11:16:02;;;;;;;0.17;0.17;;;;;;;17.58;79.53;100138.41;4947539;29;20031;-77
2023/12/24 11:18:47;;;;;;;0.10;0.10;;;;;;;17.72;78.26;100174.66;4944749;29;20659;-76
2023/12/24 11:21:19;;;;;;;0.20;0.20;;;;;;;17.69;79.60;100166.28;4938375;29;20568;-76